NKS253 KABQ-KPHX

Flight info

Callsign NKS253
Flight time 0h 56m
Altitude 30000
Route RDRNR3 ZUN EAGUL6
Aircraft A320/M-VGDW/C

Departure

Time 2026-05-04 00:54
Airport Albuquerque International Sunport (KABQ)

Arrival

Time 2026-05-04 01:51
Airport Phoenix Sky Harbor International Airport (KPHX)
Time Latitude Longitude Altitude Speed Heading
2026-05-04 00:29 35.04687 -106.61642 5333 ft 0 kts 11°
2026-05-04 00:45 35.04680 -106.61644 5318 ft 4 kts 10°
2026-05-04 00:45 35.04654 -106.61647 5319 ft 4 kts 355°
2026-05-04 00:46 35.04631 -106.61639 5322 ft 4 kts 304°
2026-05-04 00:46 35.04626 -106.61628 5317 ft 0 kts 270°
2026-05-04 00:49 35.04626 -106.61635 5317 ft 2 kts 270°
2026-05-04 00:49 35.04626 -106.61651 5327 ft 2 kts 269°
2026-05-04 00:50 35.04626 -106.61669 5325 ft 2 kts 269°
2026-05-04 00:50 35.04624 -106.61689 5328 ft 2 kts 252°
2026-05-04 00:50 35.04614 -106.61704 5328 ft 2 kts 226°
2026-05-04 00:50 35.04601 -106.61717 5326 ft 3 kts 219°
2026-05-04 00:51 35.04572 -106.61746 5326 ft 6 kts 220°
2026-05-04 00:51 35.04548 -106.61796 5331 ft 8 kts 266°
2026-05-04 00:51 35.04552 -106.61871 5327 ft 11 kts 276°
2026-05-04 00:51 35.04560 -106.61973 5326 ft 13 kts 269°
2026-05-04 00:52 35.04558 -106.62090 5326 ft 14 kts 263°
2026-05-04 00:52 35.04529 -106.62137 5327 ft 1 kts 201°
2026-05-04 00:53 35.04510 -106.62140 5332 ft 7 kts 184°
2026-05-04 00:53 35.04442 -106.62133 5334 ft 9 kts 140°
2026-05-04 00:53 35.04436 -106.62090 5329 ft 0 kts 91°
2026-05-04 00:53 35.04434 -106.61915 5324 ft 59 kts 91°
2026-05-04 00:54 35.04428 -106.61118 5318 ft 125 kts 90°
2026-05-04 00:54 35.04424 -106.59854 5326 ft 173 kts 90°
2026-05-04 00:54 35.04418 -106.58291 5743 ft 185 kts 91°
2026-05-04 00:54 35.04425 -106.56722 6472 ft 187 kts 94°
2026-05-04 00:55 35.04461 -106.55115 7039 ft 192 kts 94°
2026-05-04 00:55 35.04656 -106.53448 7297 ft 207 kts 63°
2026-05-04 00:55 35.05742 -106.52195 7572 ft 227 kts 19°
2026-05-04 00:55 35.07310 -106.52111 7820 ft 235 kts 336°
2026-05-04 00:56 35.08264 -106.52820 8034 ft 243 kts 309°
2026-05-04 00:56 35.09016 -106.54673 8463 ft 255 kts 278°
2026-05-04 00:56 35.09226 -106.56882 8894 ft 270 kts 268°
2026-05-04 00:56 35.09208 -106.59217 9454 ft 278 kts 266°
2026-05-04 00:57 35.09119 -106.61588 10185 ft 281 kts 266°
2026-05-04 00:57 35.09039 -106.64023 10608 ft 297 kts 267°
2026-05-04 00:57 35.09004 -106.66642 10823 ft 317 kts 268°
2026-05-04 00:57 35.09013 -106.69332 11344 ft 326 kts 269°
2026-05-04 00:58 35.09053 -106.72117 11963 ft 330 kts 271°
2026-05-04 00:58 35.09112 -106.74935 12643 ft 334 kts 271°
2026-05-04 00:58 35.09413 -106.77761 13290 ft 338 kts 280°
2026-05-04 00:58 35.09858 -106.80588 13972 ft 340 kts 279°
2026-05-04 00:59 35.10294 -106.83435 14573 ft 343 kts 279°
2026-05-04 00:59 35.10728 -106.86311 15168 ft 345 kts 279°
2026-05-04 00:59 35.10987 -106.89225 15577 ft 347 kts 269°
2026-05-04 00:59 35.10728 -106.92160 16142 ft 350 kts 257°
2026-05-04 01:00 35.10144 -106.95057 16730 ft 352 kts 256°
2026-05-04 01:00 35.09555 -106.97969 17329 ft 355 kts 256°
2026-05-04 01:00 35.08961 -107.00901 17919 ft 357 kts 256°
2026-05-04 01:00 35.08362 -107.03858 18498 ft 359 kts 256°
2026-05-04 01:01 35.07765 -107.06826 19108 ft 360 kts 257°
2026-05-04 01:01 35.07170 -107.09795 19746 ft 360 kts 257°
2026-05-04 01:01 35.06571 -107.12772 20361 ft 361 kts 257°
2026-05-04 01:01 35.05971 -107.15753 20944 ft 363 kts 257°
2026-05-04 01:02 35.05367 -107.18747 21499 ft 364 kts 257°
2026-05-04 01:02 35.04759 -107.21755 22057 ft 366 kts 257°
2026-05-04 01:02 35.04147 -107.24776 22607 ft 368 kts 257°
2026-05-04 01:02 35.03717 -107.27849 23122 ft 368 kts 267°
2026-05-04 01:03 35.03619 -107.30978 23609 ft 370 kts 268°
2026-05-04 01:03 35.03529 -107.34116 24063 ft 371 kts 268°
2026-05-04 01:03 35.03434 -107.37259 24508 ft 371 kts 268°
2026-05-04 01:03 35.03334 -107.40407 24959 ft 371 kts 268°
2026-05-04 01:04 35.03233 -107.43550 25398 ft 371 kts 268°
2026-05-04 01:04 35.03131 -107.46698 25826 ft 372 kts 268°
2026-05-04 01:04 35.03031 -107.49852 26255 ft 372 kts 268°
2026-05-04 01:04 35.02931 -107.53009 26678 ft 372 kts 268°
2026-05-04 01:05 35.02831 -107.56172 27071 ft 373 kts 268°
2026-05-04 01:05 35.02729 -107.59340 27484 ft 374 kts 268°
2026-05-04 01:05 35.02625 -107.62512 27898 ft 375 kts 268°
2026-05-04 01:05 35.02519 -107.65690 28290 ft 376 kts 268°
2026-05-04 01:06 35.02411 -107.68880 28676 ft 376 kts 268°
2026-05-04 01:06 35.02302 -107.72074 29070 ft 377 kts 268°
2026-05-04 01:06 35.02193 -107.75274 29428 ft 378 kts 269°
2026-05-04 01:06 35.02083 -107.78468 29825 ft 377 kts 269°
2026-05-04 01:07 35.01973 -107.81650 29899 ft 375 kts 269°
2026-05-04 01:07 35.01755 -107.87986 29900 ft 374 kts 269°
2026-05-04 01:08 35.01529 -107.94320 29904 ft 374 kts 269°
2026-05-04 01:08 35.01299 -108.00609 29902 ft 373 kts 269°
2026-05-04 01:09 35.01061 -108.06958 29898 ft 375 kts 268°
2026-05-04 01:09 35.00823 -108.13368 29903 ft 376 kts 268°
2026-05-04 01:10 35.00585 -108.19697 29902 ft 376 kts 268°
2026-05-04 01:10 35.00336 -108.26115 29898 ft 376 kts 268°
2026-05-04 01:11 35.00092 -108.32492 29900 ft 377 kts 268°
2026-05-04 01:11 34.99843 -108.38873 29900 ft 377 kts 268°
2026-05-04 01:12 34.99586 -108.45260 29888 ft 378 kts 268°
2026-05-04 01:12 34.99327 -108.51683 29891 ft 380 kts 268°
2026-05-04 01:13 34.99070 -108.58110 29887 ft 380 kts 268°
2026-05-04 01:13 34.98804 -108.64502 29887 ft 380 kts 268°
2026-05-04 01:14 34.98531 -108.70941 29882 ft 380 kts 268°
2026-05-04 01:14 34.98258 -108.77378 29879 ft 380 kts 268°
2026-05-04 01:15 34.97982 -108.83827 29880 ft 381 kts 268°
2026-05-04 01:15 34.97698 -108.90286 29866 ft 382 kts 268°
2026-05-04 01:16 34.97421 -108.96746 29866 ft 382 kts 268°
2026-05-04 01:16 34.97137 -109.03209 29857 ft 381 kts 268°
2026-05-04 01:17 34.96840 -109.09654 29854 ft 380 kts 268°
2026-05-04 01:17 34.96216 -109.16034 29851 ft 382 kts 256°
2026-05-04 01:18 34.94169 -109.22065 29835 ft 386 kts 250°
2026-05-04 01:18 34.91992 -109.28034 29857 ft 385 kts 250°
2026-05-04 01:19 34.89820 -109.34004 29857 ft 385 kts 250°
2026-05-04 01:19 34.87643 -109.39970 29853 ft 385 kts 250°
2026-05-04 01:20 34.85462 -109.45928 29865 ft 385 kts 250°
2026-05-04 01:20 34.83267 -109.51886 29872 ft 386 kts 249°
2026-05-04 01:21 34.81068 -109.57847 29864 ft 386 kts 249°
2026-05-04 01:21 34.78871 -109.63805 29856 ft 386 kts 250°
2026-05-04 01:22 34.76678 -109.69763 29842 ft 386 kts 249°
2026-05-04 01:22 34.74488 -109.75679 29843 ft 386 kts 249°
2026-05-04 01:23 34.72279 -109.81632 29837 ft 386 kts 249°
2026-05-04 01:23 34.70074 -109.87580 29839 ft 386 kts 249°
2026-05-04 01:24 34.67868 -109.93528 29847 ft 386 kts 249°
2026-05-04 01:24 34.65656 -109.99470 29850 ft 386 kts 249°
2026-05-04 01:25 34.63438 -110.05405 29849 ft 386 kts 249°
2026-05-04 01:25 34.61221 -110.11332 29853 ft 386 kts 249°
2026-05-04 01:26 34.59004 -110.17260 29853 ft 385 kts 249°
2026-05-04 01:26 34.56785 -110.23181 29856 ft 385 kts 249°
2026-05-04 01:27 34.54560 -110.29096 29859 ft 385 kts 249°
2026-05-04 01:27 34.52338 -110.35007 29865 ft 385 kts 249°
2026-05-04 01:28 34.50106 -110.40913 29864 ft 385 kts 249°
2026-05-04 01:28 34.47872 -110.46816 29869 ft 385 kts 249°
2026-05-04 01:29 34.45642 -110.52713 29875 ft 384 kts 249°
2026-05-04 01:29 34.43413 -110.58590 29878 ft 384 kts 249°
2026-05-04 01:30 34.41201 -110.64388 29709 ft 369 kts 249°
2026-05-04 01:30 34.40136 -110.67170 29439 ft 359 kts 249°
2026-05-04 01:30 34.39099 -110.69888 29164 ft 352 kts 249°
2026-05-04 01:30 34.38080 -110.72571 28901 ft 350 kts 249°
2026-05-04 01:31 34.37065 -110.75236 28634 ft 348 kts 249°
2026-05-04 01:31 34.36043 -110.77886 28372 ft 348 kts 246°
2026-05-04 01:31 34.34733 -110.80359 28106 ft 351 kts 237°
2026-05-04 01:31 34.33100 -110.82544 27851 ft 347 kts 233°
2026-05-04 01:32 34.31454 -110.84664 27593 ft 344 kts 233°
2026-05-04 01:32 34.29821 -110.86771 27337 ft 342 kts 233°
2026-05-04 01:32 34.28198 -110.88867 27080 ft 341 kts 233°
2026-05-04 01:32 34.26582 -110.90958 26824 ft 340 kts 233°
2026-05-04 01:33 34.24970 -110.93047 26517 ft 340 kts 233°
2026-05-04 01:33 34.23358 -110.95141 26034 ft 341 kts 232°
2026-05-04 01:33 34.21739 -110.97240 25636 ft 340 kts 232°
2026-05-04 01:33 34.20122 -110.99326 25120 ft 342 kts 232°
2026-05-04 01:34 34.18510 -111.01402 24865 ft 336 kts 232°
2026-05-04 01:34 34.16915 -111.03454 24485 ft 334 kts 232°
2026-05-04 01:34 34.15329 -111.05495 24111 ft 332 kts 232°
2026-05-04 01:34 34.13754 -111.07520 23686 ft 329 kts 231°
2026-05-04 01:35 34.12194 -111.09520 23100 ft 323 kts 231°
2026-05-04 01:35 34.10670 -111.11467 22518 ft 316 kts 231°
2026-05-04 01:35 34.09170 -111.13391 21837 ft 314 kts 231°
2026-05-04 01:35 34.07686 -111.15300 21230 ft 309 kts 230°
2026-05-04 01:36 34.06221 -111.17181 20629 ft 306 kts 230°
2026-05-04 01:36 34.04777 -111.19035 20126 ft 301 kts 230°
2026-05-04 01:36 34.03353 -111.20867 19663 ft 299 kts 229°
2026-05-04 01:36 34.01933 -111.22694 19211 ft 298 kts 229°
2026-05-04 01:37 34.00517 -111.24514 18758 ft 297 kts 229°
2026-05-04 01:37 33.99108 -111.26324 18303 ft 296 kts 228°
2026-05-04 01:37 33.97700 -111.28126 17783 ft 295 kts 228°
2026-05-04 01:37 33.96295 -111.29918 17349 ft 293 kts 227°
2026-05-04 01:38 33.94891 -111.31708 17048 ft 295 kts 227°
2026-05-04 01:38 33.93486 -111.33501 16625 ft 294 kts 227°
2026-05-04 01:38 33.92086 -111.35292 16174 ft 294 kts 227°
2026-05-04 01:38 33.91157 -111.36479 15870 ft 294 kts 226°
2026-05-04 01:39 33.89280 -111.38870 15268 ft 294 kts 226°
2026-05-04 01:39 33.88338 -111.40049 14976 ft 296 kts 223°
2026-05-04 01:39 33.86735 -111.41568 14625 ft 293 kts 215°
2026-05-04 01:39 33.85068 -111.42998 14263 ft 292 kts 214°
2026-05-04 01:40 33.83424 -111.44411 13927 ft 291 kts 215°
2026-05-04 01:40 33.81775 -111.45830 13542 ft 291 kts 214°
2026-05-04 01:40 33.80141 -111.47236 13048 ft 288 kts 214°
2026-05-04 01:40 33.78522 -111.48628 12507 ft 285 kts 214°
2026-05-04 01:41 33.76395 -111.50460 11799 ft 282 kts 214°
2026-05-04 01:41 33.75326 -111.51382 11447 ft 278 kts 214°
2026-05-04 01:41 33.73766 -111.52726 11019 ft 276 kts 215°
2026-05-04 01:41 33.72204 -111.54068 10598 ft 276 kts 214°
2026-05-04 01:42 33.70638 -111.55407 10197 ft 277 kts 215°
2026-05-04 01:42 33.69085 -111.56730 10071 ft 268 kts 215°
2026-05-04 01:42 33.67595 -111.58004 10013 ft 256 kts 215°
2026-05-04 01:42 33.66191 -111.59208 9880 ft 240 kts 215°
2026-05-04 01:43 33.64878 -111.60336 9772 ft 227 kts 216°
2026-05-04 01:43 33.63592 -111.61433 9582 ft 226 kts 214°
2026-05-04 01:43 33.62311 -111.62508 9202 ft 222 kts 214°
2026-05-04 01:43 33.61046 -111.63564 8889 ft 223 kts 214°
2026-05-04 01:44 33.59770 -111.64629 8560 ft 224 kts 214°
2026-05-04 01:44 33.58489 -111.65699 8240 ft 225 kts 214°
2026-05-04 01:44 33.57205 -111.66768 7916 ft 225 kts 215°
2026-05-04 01:44 33.55920 -111.67841 7603 ft 225 kts 214°
2026-05-04 01:45 33.54635 -111.68919 7290 ft 226 kts 215°
2026-05-04 01:45 33.53345 -111.70011 6961 ft 229 kts 215°
2026-05-04 01:45 33.50752 -111.72205 6312 ft 225 kts 215°
2026-05-04 01:46 33.49482 -111.73277 5986 ft 221 kts 215°
2026-05-04 01:46 33.48240 -111.74324 5665 ft 215 kts 216°
2026-05-04 01:46 33.47039 -111.75337 5366 ft 210 kts 216°
2026-05-04 01:46 33.45849 -111.76343 5082 ft 209 kts 216°
2026-05-04 01:47 33.44728 -111.77434 4803 ft 208 kts 231°
2026-05-04 01:47 33.44139 -111.78992 4538 ft 208 kts 258°
2026-05-04 01:47 33.44051 -111.80751 4253 ft 214 kts 263°
2026-05-04 01:47 33.44014 -111.82489 3955 ft 205 kts 266°
2026-05-04 01:48 33.44027 -111.84129 3701 ft 192 kts 265°
2026-05-04 01:48 33.44048 -111.85704 3323 ft 187 kts 266°
2026-05-04 01:48 33.44056 -111.87233 3014 ft 182 kts 267°
2026-05-04 01:48 33.44062 -111.88686 2798 ft 167 kts 265°
2026-05-04 01:49 33.44066 -111.90030 2584 ft 155 kts 263°
2026-05-04 01:49 33.44070 -111.91269 2396 ft 145 kts 262°
2026-05-04 01:49 33.44071 -111.92473 2238 ft 144 kts 263°
2026-05-04 01:49 33.44073 -111.93649 2059 ft 140 kts 264°
2026-05-04 01:50 33.44075 -111.94817 1910 ft 139 kts 269°
2026-05-04 01:50 33.44080 -111.96002 1779 ft 142 kts 266°
2026-05-04 01:50 33.44082 -111.97180 1565 ft 141 kts 269°
2026-05-04 01:50 33.44084 -111.98352 1321 ft 143 kts 269°
2026-05-04 01:51 33.44087 -111.99492 1142 ft 124 kts 270°
2026-05-04 01:51 33.44088 -112.00300 1131 ft 62 kts 269°
2026-05-04 01:51 33.44082 -112.00658 1130 ft 22 kts 263°
2026-05-04 01:51 33.44005 -112.00742 1132 ft 0 kts 179°
2026-05-04 01:52 33.44004 -112.00742 1132 ft 0 kts 179°
2026-05-04 01:52 33.43999 -112.00741 1132 ft 0 kts 169°
2026-05-04 01:53 33.43988 -112.00733 1133 ft 4 kts 140°
2026-05-04 01:53 33.43978 -112.00692 1133 ft 7 kts 93°
2026-05-04 01:53 33.43975 -112.00615 1134 ft 11 kts 92°
2026-05-04 01:53 33.43973 -112.00523 1130 ft 3 kts 89°
2026-05-04 01:54 33.43973 -112.00511 1130 ft 3 kts 89°
2026-05-04 01:54 33.43973 -112.00508 1134 ft 0 kts 89°
2026-05-04 01:55 33.43974 -112.00481 1130 ft 8 kts 89°
2026-05-04 01:55 33.43958 -112.00387 1133 ft 14 kts 146°
2026-05-04 01:55 33.43846 -112.00380 1133 ft 18 kts 181°
2026-05-04 01:55 33.43715 -112.00382 1133 ft 20 kts 179°
2026-05-04 01:56 33.43570 -112.00382 1132 ft 22 kts 181°
2026-05-04 01:56 33.43411 -112.00386 1133 ft 24 kts 179°
2026-05-04 01:56 33.43354 -112.00368 1132 ft 5 kts 121°
2026-05-04 01:56 33.43360 -112.00319 1135 ft 7 kts 80°
2026-05-04 01:57 33.43368 -112.00260 1131 ft 7 kts 73°